Selsey Bill 's weather forecast for the week

Current weather in Selsey Bill

Weather

Partly cloudy
Cloud cover 38%

Temperature

15°C
Minimum 8°C
Maximum 18°C

Wind

12 km/h
Wind gust 18 km/h

Humidity

87%
Dew point 6°C
Temp Feels Precip Humidity
00:00am Partly cloudy 9°C 8°C 0 mm 94%
03:00am Partly cloudy 15°C 7°C 0 mm 87%
06:00am Partly cloudy 16°C 8°C 0 mm 75%
09:00am Partly cloudy 15°C 15°C 0 mm 60%
12:00pm Partly cloudy 18°C 18°C 0 mm 60%
15:00pm Partly cloudy 18°C 18°C 0 mm 63%
18:00pm Partly cloudy 16°C 16°C 0 mm 76%
21:00pm Partly cloudy 9°C 8°C 0 mm 86%
Temp Feels Precip Humidity
00:00am Partly cloudy 8°C 7°C 0 mm 85%
03:00am Partly cloudy 7°C 7°C 0 mm 78%
06:00am Partly cloudy 11°C 11°C 0 mm 72%
09:00am Partly cloudy 16°C 16°C 0 mm 68%
12:00pm Overcast 18°C 18°C 0 mm 66%
15:00pm Partly cloudy 18°C 18°C 0 mm 70%
18:00pm Cloudy 13°C 12°C 0 mm 82%
21:00pm Light drizzle 12°C 10°C 0.2 mm 85%
Temp Feels Precip Humidity
00:00am Overcast 12°C 10°C 0 mm 97%
03:00am Light drizzle 13°C 9°C 0.2 mm 96%
06:00am Overcast 16°C 10°C 0 mm 97%
09:00am Light rain shower 13°C 11°C 2.4 mm 90%
12:00pm Partly cloudy 17°C 17°C 0 mm 79%
15:00pm Patchy rain possible 17°C 17°C 0.7 mm 74%
18:00pm Partly cloudy 16°C 16°C 0 mm 81%
21:00pm Cloudy 12°C 10°C 0 mm 90%
Temp Feels Precip Humidity
00:00am Partly cloudy 10°C 8°C 0 mm 95%
03:00am Fog 16°C 7°C 0 mm 97%
06:00am Partly cloudy 17°C 9°C 0 mm 93%
09:00am Cloudy 16°C 16°C 0 mm 75%
12:00pm Overcast 18°C 18°C 0 mm 72%
15:00pm Light rain shower 18°C 18°C 1.1 mm 76%
18:00pm Partly cloudy 17°C 17°C 0 mm 86%
21:00pm Light rain shower 13°C 13°C 0.9 mm 94%
Temp Feels Precip Humidity
00:00am Mist 12°C 11°C 0 mm 96%
03:00am Mist 16°C 9°C 0 mm 96%
06:00am Partly cloudy 16°C 12°C 0 mm 94%
09:00am Overcast 16°C 16°C 0 mm 82%
12:00pm Overcast 16°C 16°C 0 mm 89%
15:00pm Light drizzle 17°C 17°C 0.2 mm 87%
18:00pm Overcast 16°C 16°C 0 mm 90%
21:00pm Light rain 14°C 13°C 1.1 mm 97%
Temp Feels Precip Humidity
00:00am Overcast 12°C 10°C 0 mm 97%
03:00am Light rain 12°C 9°C 0.9 mm 97%
06:00am Overcast 13°C 9°C 0 mm 97%
09:00am Light rain 12°C 11°C 2.1 mm 96%
12:00pm Overcast 12°C 11°C 0 mm 98%
15:00pm Light drizzle 14°C 12°C 0.7 mm 96%
18:00pm Overcast 13°C 11°C 0 mm 98%
21:00pm Moderate rain 13°C 11°C 4.9 mm 97%
Temp Feels Precip Humidity
00:00am Overcast 11°C 9°C 0 mm 96%
03:00am Light drizzle 13°C 8°C 0.3 mm 97%
06:00am Overcast 14°C 8°C 0 mm 95%
09:00am Patchy rain possible 13°C 11°C 0.1 mm 84%
12:00pm Partly cloudy 16°C 16°C 0 mm 71%
15:00pm Patchy rain possible 15°C 15°C 0.5 mm 74%
18:00pm Partly cloudy 14°C 13°C 0 mm 82%
21:00pm Patchy rain possible 9°C 8°C 0.1 mm 92%

Save your favorite locations, unlock more tidal information, less advertising and more...

Sign in to Tideschart with your Facebook account in one easy click (it's FREE!)